Time;durP1;ratioP1;P1;durP2;ratioP2;P2;SDS_P1;SDS_P2;PMS_P1;PMS_P2;Temp;Humidity;BMP_temperature;BMP_pressure;BME280_temperature;BME280_humidity;BME280_pressure;Samples;Min_cycle;Max_cycle;Signal;HPM_P1;HPM_P2
2023/04/11 05:07:00;;;;;;;;;;;;;;;;;;5917380;23;19944;-96
2023/04/11 05:09:26;;;;;;;;;;;;;;;;;;4983322;28;20317;-92
2023/04/11 05:11:52;;;;;;;;;;;;;;;;;;4981896;28;19921;-93
2023/04/11 05:14:18;;;;;;;;;;;;;;;;;;4982273;28;19944;-94
2023/04/11 05:17:29;;;;;;;;;;;;;;;;;;4969188;28;20222;-96
2023/04/11 05:19:36;;;;;;;;;;;;;;;;;;4972508;28;20281;-96
2023/04/11 05:22:02;;;;;;;;;;;;;;;;;;4979150;28;19922;-93
2023/04/11 05:24:28;;;;;;;;;;;;;;;;;;4979478;28;19922;-92
2023/04/11 05:26:55;;;;;;;;;;;;;;;;;;4978581;28;19926;-93
2023/04/11 05:29:21;;;;;;;;;;;;;;;;;;4978461;28;19936;-93
2023/04/11 05:31:47;;;;;;;;;;;;;;;;;;4978282;28;19921;-94
2023/04/11 05:34:13;;;;;;;;;;;;;;;;;;4978411;28;19921;-94
2023/04/11 05:36:40;;;;;;;;;;;;;;;;;;4978189;28;20013;-94
2023/04/11 05:39:06;;;;;;;;;;;;;;;;;;4977851;28;19928;-94
2023/04/11 05:41:32;;;;;;;;;;;;;;;;;;4977996;28;19921;-93
2023/04/11 05:43:58;;;;;;;;;;;;;;;;;;4978026;28;19922;-93
2023/04/11 05:46:24;;;;;;;;;;;;;;;;;;4978110;28;19921;-93
2023/04/11 05:48:50;;;;;;;;;;;;;;;;;;4978044;28;19922;-93
2023/04/11 05:51:16;;;;;;;;;;;;;;;;;;4977864;28;19933;-94
2023/04/11 05:53:42;;;;;;;;;;;;;;;;;;4977736;28;19922;-93
2023/04/11 05:56:08;;;;;;;;;;;;;;;;;;4977633;28;20013;-94
2023/04/11 05:58:36;;;;;;;;;;;;;;;;;;4977622;28;20092;-93
2023/04/11 06:01:02;;;;;;;;;;;;;;;;;;4977669;28;19922;-94
2023/04/11 06:03:28;;;;;;;;;;;;;;;;;;4977729;28;19922;-94
2023/04/11 06:05:54;;;;;;;;;;;;;;;;;;4977632;28;19921;-94
2023/04/11 06:08:20;;;;;;;;;;;;;;;;;;4977366;28;19925;-94
2023/04/11 06:10:46;;;;;;;;;;;;;;;;;;4977358;28;20361;-93
2023/04/11 06:13:12;;;;;;;;;;;;;;;;;;4977228;28;19922;-93
2023/04/11 06:15:38;;;;;;;;;;;;;;;;;;4976710;28;19926;-94
2023/04/11 06:18:10;;;;;;;;;;;;;;;;;;4981519;28;20017;-96
2023/04/11 06:20:36;;;;;;;;;;;;;;;;;;4989041;28;19933;-96
2023/04/11 06:26:12;;;;;;;;;;;;;;;;;;4951776;28;19921;-96
2023/04/11 06:31:54;;;;;;;;;;;;;;;;;;5004946;28;19961;-96
2023/04/11 06:39:36;;;;;;;;;;;;;;;;;;5364362;23;19925;-96
2023/04/11 06:42:11;;;;;;;;;;;;;;;;;;4983383;28;19928;-96
2023/04/11 06:44:47;;;;;;;;;;;;;;;;;;5005459;28;19925;-95
2023/04/11 06:47:13;;;;;;;;;;;;;;;;;;4963538;28;20127;-95
2023/04/11 06:49:39;;;;;;;;;;;;;;;;;;4980835;28;19953;-94
2023/04/11 07:07:59;;;;;;;;;;;;;;;;;;5048884;23;19945;-94
2023/04/11 07:45:49;;;;;;;;;;;;;;;;;;4993490;28;20377;-96
2023/04/11 07:48:17;;;;;;;;;;;;;;;;;;5250872;23;19926;-95
2023/04/11 07:50:46;;;;;;;;;;;;;;;;;;4940553;28;20378;-93
2023/04/11 07:53:18;;;;;;;;;;;;;;;;;;4942014;28;20339;-94
2023/04/11 08:49:26;;;;;;;;;;;;;;;;;;5234666;23;19926;-95
2023/04/11 08:51:51;;;;;;;;;;;;;;;;;;5140901;23;19934;-95
2023/04/11 08:54:17;;;;;;;;;;;;;;;;;;4948757;28;19929;-95
2023/04/11 08:56:43;;;;;;;;;;;;;;;;;;4959578;28;19921;-94
2023/04/11 08:59:09;;;;;;;;;;;;;;;;;;4959738;28;19976;-94
2023/04/11 09:01:36;;;;;;;;;;;;;;;;;;4959812;28;19922;-94
2023/04/11 09:04:03;;;;;;;;;;;;;;;;;;4959308;28;19960;-94
2023/04/11 09:06:29;;;;;;;;;;;;;;;;;;4959493;28;19981;-94
2023/04/11 09:08:55;;;;;;;;;;;;;;;;;;4959243;28;19922;-94
2023/04/11 09:11:21;;;;;;;;;;;;;;;;;;4975787;28;20024;-94
2023/04/11 09:13:53;;;;;;;;;;;;;;;;;;4978583;28;19928;-94
2023/04/11 09:16:19;;;;;;;;;;;;;;;;;;4963071;28;20009;-94
2023/04/11 09:18:45;;;;;;;;;;;;;;;;;;4962765;28;20030;-94
2023/04/11 09:21:11;;;;;;;;;;;;;;;;;;4962698;28;19952;-92
2023/04/11 09:23:37;;;;;;;;;;;;;;;;;;4962403;28;19922;-93
2023/04/11 09:26:03;;;;;;;;;;;;;;;;;;4962598;28;19921;-93
2023/04/11 09:28:29;;;;;;;;;;;;;;;;;;4962990;28;19922;-93
2023/04/11 09:30:55;;;;;;;;;;;;;;;;;;4963050;28;20041;-96
2023/04/11 09:55:30;;;;;;;;;;;;;;;;;;5937834;23;20012;-94
2023/04/11 09:57:56;;;;;;;;;;;;;;;;;;5002601;28;19968;-92
2023/04/11 10:00:31;;;;;;;;;;;;;;;;;;5003270;28;20011;-96
2023/04/11 10:03:00;;;;;;;;;;;;;;;;;;5001198;28;19925;-96
2023/04/11 10:31:40;;;;;;;;;;;;;;;;;;5842191;23;19960;-96
2023/04/11 10:34:06;;;;;;;;;;;;;;;;;;4979845;28;19965;-95
2023/04/11 10:36:32;;;;;;;;;;;;;;;;;;4980649;28;19929;-94
2023/04/11 10:38:57;;;;;;;;;;;;;;;;;;4981053;28;19921;-95
2023/04/11 10:41:33;;;;;;;;;;;;;;;;;;4980390;28;19921;-95
2023/04/11 10:43:59;;;;;;;;;;;;;;;;;;4980817;28;19922;-95
2023/04/11 10:46:25;;;;;;;;;;;;;;;;;;4984258;28;19921;-94
2023/04/11 10:48:51;;;;;;;;;;;;;;;;;;4984408;28;19922;-95
2023/04/11 10:51:17;;;;;;;;;;;;;;;;;;4983945;28;20379;-94
2023/04/11 10:53:46;;;;;;;;;;;;;;;;;;4985259;28;19921;-95
2023/04/11 10:56:12;;;;;;;;;;;;;;;;;;5000838;28;19929;-95
2023/04/11 10:58:38;;;;;;;;;;;;;;;;;;4983838;28;19922;-95
2023/04/11 11:01:08;;;;;;;;;;;;;;;;;;5000143;28;20023;-96
2023/04/11 11:03:40;;;;;;;;;;;;;;;;;;4999904;28;19964;-94
2023/04/11 11:11:13;;;;;;;;;;;;;;;;;;5021130;28;19925;-94
2023/04/11 11:13:51;;;;;;;;;;;;;;;;;;5017078;28;19921;-93
2023/04/11 11:16:17;;;;;;;;;;;;;;;;;;5000426;28;19922;-96
2023/04/11 11:18:43;;;;;;;;;;;;;;;;;;5000012;28;19949;-95
2023/04/11 11:21:23;;;;;;;;;;;;;;;;;;5015290;28;19921;-95
2023/04/11 11:27:30;;;;;;;;;;;;;;;;;;4978038;28;19953;-94
2023/04/11 11:29:56;;;;;;;;;;;;;;;;;;4970552;28;19933;-94
2023/04/11 11:37:47;;;;;;;;;;;;;;;;;;4996057;28;19929;-93
2023/04/11 11:46:21;;;;;;;;;;;;;;;;;;5396218;23;20492;-95
2023/04/11 11:58:07;;;;;;;;;;;;;;;;;;5038457;23;19932;-95
2023/04/11 12:00:49;;;;;;;;;;;;;;;;;;5015862;28;19921;-94
2023/04/11 12:03:16;;;;;;;;;;;;;;;;;;4999390;28;19928;-94
2023/04/11 12:05:43;;;;;;;;;;;;;;;;;;4994666;28;20018;-92
2023/04/11 12:08:09;;;;;;;;;;;;;;;;;;4996056;28;19922;-91
2023/04/11 12:13:06;;;;;;;;;;;;;;;;;;5034753;28;19929;-90
2023/04/11 12:15:39;;;;;;;;;;;;;;;;;;5014755;28;19921;-94
2023/04/11 12:18:16;;;;;;;;;;;;;;;;;;5001797;28;19968;-93
2023/04/11 12:20:42;;;;;;;;;;;;;;;;;;4999686;28;19921;-94
2023/04/11 12:23:08;;;;;;;;;;;;;;;;;;4999622;28;19971;-94
2023/04/11 12:25:41;;;;;;;;;;;;;;;;;;4999528;28;20023;-94
2023/04/11 12:28:17;;;;;;;;;;;;;;;;;;5015341;28;19925;-94
2023/04/11 12:30:46;;;;;;;;;;;;;;;;;;5016399;28;19925;-93
2023/04/11 12:33:15;;;;;;;;;;;;;;;;;;5015126;28;19923;-94
2023/04/11 13:09:35;;;;;;;;;;;;;;;;;;6083706;23;19928;-95
2023/04/11 13:17:30;;;;;;;;;;;;;;;;;;5015837;28;19926;-93
2023/04/11 14:25:47;;;;;;;;;;;;;;;;;;5698193;23;19926;-95
2023/04/11 14:28:13;;;;;;;;;;;;;;;;;;4981808;28;19921;-95
2023/04/11 14:30:45;;;;;;;;;;;;;;;;;;4988123;28;19932;-93
2023/04/11 15:15:21;;;;;;;;;;;;;;;;;;5443795;23;19933;-94
2023/04/11 15:18:08;;;;;;;;;;;;;;;;;;4981079;28;19922;-95
2023/04/11 15:21:28;;;;;;;;;;;;;;;;;;;;;
2023/04/11 15:23:46;;;;;;;;;;;;;;;;;;4993490;28;19921;-96
2023/04/11 15:56:10;;;;;;;;;;;;;;;;;;;;;
2023/04/11 16:14:41;;;;;;;;;;;;;;;;;;5002010;28;19922;-96
2023/04/11 16:56:00;;;;;;;;;;;;;;;;;;5457005;23;19926;-93
2023/04/11 16:58:28;;;;;;;;;;;;;;;;;;5001928;28;20459;-96
2023/04/11 17:00:58;;;;;;;;;;;;;;;;;;5019709;28;19921;-94
2023/04/11 17:03:32;;;;;;;;;;;;;;;;;;5019219;28;19944;-94
2023/04/11 17:06:01;;;;;;;;;;;;;;;;;;5002970;28;19999;-95
2023/04/11 17:08:30;;;;;;;;;;;;;;;;;;5020926;28;19921;-93
2023/04/11 17:10:56;;;;;;;;;;;;;;;;;;5002683;28;20015;-92
2023/04/11 17:13:22;;;;;;;;;;;;;;;;;;5007853;28;19921;-93
2023/04/11 17:15:51;;;;;;;;;;;;;;;;;;5007201;28;20042;-94
2023/04/11 17:18:17;;;;;;;;;;;;;;;;;;5009807;28;20335;-95
2023/04/11 17:20:45;;;;;;;;;;;;;;;;;;5009107;28;19972;-94
2023/04/11 17:23:11;;;;;;;;;;;;;;;;;;5005521;28;19959;-91
2023/04/11 17:25:37;;;;;;;;;;;;;;;;;;5004121;28;19921;-92
2023/04/11 17:28:07;;;;;;;;;;;;;;;;;;5002574;28;19936;-94
2023/04/11 17:30:34;;;;;;;;;;;;;;;;;;5004777;28;19968;-93
2023/04/11 17:33:00;;;;;;;;;;;;;;;;;;5003277;28;19936;-95
2023/04/11 17:35:26;;;;;;;;;;;;;;;;;;5002796;28;19925;-93
2023/04/11 17:37:52;;;;;;;;;;;;;;;;;;5002473;28;19928;-92
2023/04/11 17:40:18;;;;;;;;;;;;;;;;;;5002397;28;19928;-92
2023/04/11 17:42:44;;;;;;;;;;;;;;;;;;5004352;28;19921;-93
2023/04/11 17:45:15;;;;;;;;;;;;;;;;;;5018875;28;19929;-95
2023/04/11 17:47:41;;;;;;;;;;;;;;;;;;5002210;28;20347;-92
2023/04/11 17:50:08;;;;;;;;;;;;;;;;;;5001371;28;20016;-93
2023/04/11 17:52:47;;;;;;;;;;;;;;;;;;5017832;28;19921;-92
2023/04/11 17:55:13;;;;;;;;;;;;;;;;;;5000680;28;19926;-92
2023/04/11 17:57:39;;;;;;;;;;;;;;;;;;5000566;28;20305;-92
2023/04/11 18:00:38;;;;;;;;;;;;;;;;;;5000715;28;19921;-93
2023/04/11 18:03:01;;;;;;;;;;;;;;;;;;5014702;28;19928;-96
2023/04/11 18:05:30;;;;;;;;;;;;;;;;;;5000711;28;20372;-93
2023/04/11 18:07:56;;;;;;;;;;;;;;;;;;5016768;28;20376;-92
2023/04/11 18:10:22;;;;;;;;;;;;;;;;;;5000298;28;19929;-93
2023/04/11 18:12:48;;;;;;;;;;;;;;;;;;5000257;28;20344;-92
2023/04/11 18:15:14;;;;;;;;;;;;;;;;;;4999507;28;19970;-91
2023/04/11 18:17:42;;;;;;;;;;;;;;;;;;5000177;28;20015;-91
2023/04/11 18:20:11;;;;;;;;;;;;;;;;;;4999977;28;20016;-92
2023/04/11 18:22:37;;;;;;;;;;;;;;;;;;5000544;28;20062;-93
2023/04/11 18:25:03;;;;;;;;;;;;;;;;;;4999903;28;19986;-92
2023/04/11 18:27:29;;;;;;;;;;;;;;;;;;4999868;28;19972;-91
2023/04/11 18:29:56;;;;;;;;;;;;;;;;;;4999671;28;19925;-91
2023/04/11 18:32:22;;;;;;;;;;;;;;;;;;5016241;28;20062;-90
2023/04/11 18:34:48;;;;;;;;;;;;;;;;;;5000389;28;19997;-91
2023/04/11 18:37:14;;;;;;;;;;;;;;;;;;5015921;28;19921;-92
2023/04/11 18:39:40;;;;;;;;;;;;;;;;;;5000251;28;20019;-91
2023/04/11 18:42:06;;;;;;;;;;;;;;;;;;4999604;28;20390;-88
2023/04/11 18:44:32;;;;;;;;;;;;;;;;;;4999019;28;19925;-87
2023/04/11 18:46:57;;;;;;;;;;;;;;;;;;5015294;28;19929;-90
2023/04/11 18:49:23;;;;;;;;;;;;;;;;;;5016126;28;19964;-93
2023/04/11 18:51:51;;;;;;;;;;;;;;;;;;4999602;28;19928;-91
2023/04/11 20:17:21;;;;;;;;;;;;;;;;;;5428296;23;20342;-89
2023/04/11 20:19:47;;;;;;;;;;;;;;;;;;4960610;28;19941;-92
2023/04/11 20:24:59;;;;;;;;;;;;;;;;;;4968117;28;19980;-92
2023/04/11 20:27:26;;;;;;;;;;;;;;;;;;4960493;28;19921;-95
2023/04/11 20:32:44;;;;;;;;;;;;;;;;;;4975921;28;19929;-93
2023/04/11 20:35:13;;;;;;;;;;;;;;;;;;4977188;28;20012;-93
2023/04/11 20:37:40;;;;;;;;;;;;;;;;;;4959457;28;19921;-92
2023/04/11 20:40:09;;;;;;;;;;;;;;;;;;4960180;28;19921;-95
2023/04/11 20:45:24;;;;;;;;;;;;;;;;;;4965553;28;19977;-93
2023/04/11 20:47:50;;;;;;;;;;;;;;;;;;4959697;28;19993;-90
2023/04/11 20:50:16;;;;;;;;;;;;;;;;;;4975091;28;19926;-90
2023/04/11 20:52:42;;;;;;;;;;;;;;;;;;4958974;28;19953;-90
2023/04/11 20:55:08;;;;;;;;;;;;;;;;;;4975486;28;19921;-92
2023/04/11 20:57:34;;;;;;;;;;;;;;;;;;4959205;28;20377;-93
2023/04/11 21:00:00;;;;;;;;;;;;;;;;;;4959360;28;19922;-92
2023/04/11 21:02:26;;;;;;;;;;;;;;;;;;4959608;28;19929;-92
2023/04/11 21:04:52;;;;;;;;;;;;;;;;;;4959396;28;20360;-92
2023/04/11 21:07:18;;;;;;;;;;;;;;;;;;4959090;28;19921;-92
2023/04/11 21:09:44;;;;;;;;;;;;;;;;;;4960793;28;19926;-92
2023/04/11 21:12:10;;;;;;;;;;;;;;;;;;4962463;28;19964;-91
2023/04/11 21:14:36;;;;;;;;;;;;;;;;;;4962529;28;19988;-91
2023/04/11 21:17:04;;;;;;;;;;;;;;;;;;4962289;28;19934;-92
2023/04/11 21:19:30;;;;;;;;;;;;;;;;;;4963112;28;20238;-92
2023/04/11 21:21:56;;;;;;;;;;;;;;;;;;4962974;28;20377;-92
2023/04/11 21:24:22;;;;;;;;;;;;;;;;;;4962873;28;19926;-91
2023/04/11 21:26:57;;;;;;;;;;;;;;;;;;4963618;28;20066;-92
2023/04/11 21:29:25;;;;;;;;;;;;;;;;;;4962897;28;19965;-91
2023/04/11 21:31:51;;;;;;;;;;;;;;;;;;4962153;28;20012;-91
2023/04/11 21:34:17;;;;;;;;;;;;;;;;;;4962124;28;19922;-92
2023/04/11 21:36:43;;;;;;;;;;;;;;;;;;4962193;28;19932;-91
2023/04/11 21:39:09;;;;;;;;;;;;;;;;;;4962246;28;19922;-91
2023/04/11 21:41:35;;;;;;;;;;;;;;;;;;4962367;28;19968;-91
2023/04/11 21:44:01;;;;;;;;;;;;;;;;;;4962236;28;19944;-90
2023/04/11 21:46:27;;;;;;;;;;;;;;;;;;4962157;28;20277;-92
2023/04/11 21:48:53;;;;;;;;;;;;;;;;;;4962028;28;20369;-91
2023/04/11 21:51:19;;;;;;;;;;;;;;;;;;4962129;28;20337;-92
2023/04/11 21:53:45;;;;;;;;;;;;;;;;;;4962149;28;20333;-91
2023/04/11 21:56:11;;;;;;;;;;;;;;;;;;4962051;28;19921;-91
2023/04/11 21:58:39;;;;;;;;;;;;;;;;;;4977607;28;19929;-91
2023/04/11 22:01:05;;;;;;;;;;;;;;;;;;4961755;28;19922;-91
2023/04/11 22:03:31;;;;;;;;;;;;;;;;;;4977802;28;19922;-91
2023/04/11 22:05:57;;;;;;;;;;;;;;;;;;4961969;28;19929;-91
2023/04/11 22:08:28;;;;;;;;;;;;;;;;;;4961806;28;20233;-92
2023/04/11 22:10:54;;;;;;;;;;;;;;;;;;4961725;28;20428;-91
2023/04/11 22:13:20;;;;;;;;;;;;;;;;;;4961561;28;20113;-91
2023/04/11 22:15:47;;;;;;;;;;;;;;;;;;4961904;28;20292;-92
2023/04/11 22:18:13;;;;;;;;;;;;;;;;;;4961057;28;19930;-91
2023/04/11 22:20:39;;;;;;;;;;;;;;;;;;4961220;28;20009;-91
2023/04/11 22:23:07;;;;;;;;;;;;;;;;;;4962158;28;19969;-91
2023/04/11 22:25:33;;;;;;;;;;;;;;;;;;4962066;28;19922;-90
2023/04/11 22:28:00;;;;;;;;;;;;;;;;;;4977581;28;19922;-91
2023/04/11 22:30:26;;;;;;;;;;;;;;;;;;4961303;28;20021;-91
2023/04/11 22:32:54;;;;;;;;;;;;;;;;;;4977269;28;20011;-91
2023/04/11 22:35:20;;;;;;;;;;;;;;;;;;4961364;28;19988;-91
2023/04/11 22:37:46;;;;;;;;;;;;;;;;;;4961272;28;19922;-91
2023/04/11 22:40:14;;;;;;;;;;;;;;;;;;4961370;28;19933;-91
2023/04/11 22:42:40;;;;;;;;;;;;;;;;;;4961287;28;20112;-91
2023/04/11 22:45:06;;;;;;;;;;;;;;;;;;4961036;28;20373;-90
2023/04/11 22:47:33;;;;;;;;;;;;;;;;;;4977068;28;20302;-90
2023/04/11 22:50:00;;;;;;;;;;;;;;;;;;4960878;28;20292;-90
2023/04/11 22:52:28;;;;;;;;;;;;;;;;;;4960485;28;20096;-90
2023/04/11 22:54:55;;;;;;;;;;;;;;;;;;4960691;28;19965;-90
2023/04/11 22:57:21;;;;;;;;;;;;;;;;;;4976646;28;19922;-90
2023/04/11 22:59:47;;;;;;;;;;;;;;;;;;4976608;28;19972;-92
2023/04/11 23:02:12;;;;;;;;;;;;;;;;;;4960725;28;19922;-91
2023/04/11 23:04:38;;;;;;;;;;;;;;;;;;4960839;28;19928;-91
2023/04/11 23:07:04;;;;;;;;;;;;;;;;;;4976472;28;19921;-91
2023/04/11 23:09:32;;;;;;;;;;;;;;;;;;4960550;28;19922;-91
2023/04/11 23:11:58;;;;;;;;;;;;;;;;;;4960763;28;20044;-91
2023/04/11 23:14:29;;;;;;;;;;;;;;;;;;4960187;28;20368;-92
2023/04/11 23:16:56;;;;;;;;;;;;;;;;;;4960400;28;20003;-91
2023/04/11 23:19:21;;;;;;;;;;;;;;;;;;4960365;28;20329;-91
2023/04/11 23:21:47;;;;;;;;;;;;;;;;;;4960258;28;19922;-91
2023/04/11 23:24:14;;;;;;;;;;;;;;;;;;4960142;28;20432;-91
2023/04/11 23:26:40;;;;;;;;;;;;;;;;;;4976101;28;20366;-90
2023/04/11 23:29:07;;;;;;;;;;;;;;;;;;4960334;28;19976;-91
2023/04/11 23:31:33;;;;;;;;;;;;;;;;;;4958883;28;20397;-91
2023/04/11 23:33:59;;;;;;;;;;;;;;;;;;4960265;28;19949;-91
2023/04/11 23:36:26;;;;;;;;;;;;;;;;;;4959903;28;19922;-91
2023/04/11 23:38:52;;;;;;;;;;;;;;;;;;4960257;28;20394;-91
2023/04/11 23:41:19;;;;;;;;;;;;;;;;;;4976527;28;20205;-91
2023/04/11 23:43:45;;;;;;;;;;;;;;;;;;4960100;28;19945;-91
2023/04/11 23:46:11;;;;;;;;;;;;;;;;;;4960147;28;19921;-90
2023/04/11 23:48:37;;;;;;;;;;;;;;;;;;4976126;28;20078;-91
2023/04/11 23:51:03;;;;;;;;;;;;;;;;;;4959657;28;20101;-91
2023/04/11 23:53:31;;;;;;;;;;;;;;;;;;4975723;28;23944;-91
2023/04/11 23:55:57;;;;;;;;;;;;;;;;;;4975734;28;19980;-91
2023/04/11 23:58:23;;;;;;;;;;;;;;;;;;4959756;28;19922;-91
